sensor_id;sensor_type;location;lat;lon;timestamp;P1;durP1;ratioP1;P2;durP2;ratioP2
76714;SDS011;65644;44.990;20.288;2023-02-23T00:01:36;36.38;;;22.65;;
76714;SDS011;65644;44.990;20.288;2023-02-23T00:03:57;37.17;;;24.45;;
76714;SDS011;65644;44.990;20.288;2023-02-23T00:06:24;38.70;;;23.75;;
76714;SDS011;65644;44.990;20.288;2023-02-23T00:08:51;34.55;;;24.20;;
76714;SDS011;65644;44.990;20.288;2023-02-23T00:11:18;35.92;;;23.48;;
76714;SDS011;65644;44.990;20.288;2023-02-23T00:13:45;33.25;;;23.40;;
76714;SDS011;65644;44.990;20.288;2023-02-23T00:16:14;33.75;;;23.27;;
76714;SDS011;65644;44.990;20.288;2023-02-23T00:18:42;34.67;;;24.02;;
76714;SDS011;65644;44.990;20.288;2023-02-23T00:21:19;35.78;;;24.08;;
76714;SDS011;65644;44.990;20.288;2023-02-23T00:23:47;37.10;;;24.80;;
76714;SDS011;65644;44.990;20.288;2023-02-23T00:26:13;34.20;;;23.73;;
76714;SDS011;65644;44.990;20.288;2023-02-23T00:28:41;38.88;;;25.60;;
76714;SDS011;65644;44.990;20.288;2023-02-23T00:31:08;37.40;;;25.58;;
76714;SDS011;65644;44.990;20.288;2023-02-23T00:33:34;39.03;;;25.25;;
76714;SDS011;65644;44.990;20.288;2023-02-23T00:36:04;39.83;;;25.25;;
76714;SDS011;65644;44.990;20.288;2023-02-23T00:38:30;37.92;;;26.17;;
76714;SDS011;65644;44.990;20.288;2023-02-23T00:41:02;39.10;;;24.92;;
76714;SDS011;65644;44.990;20.288;2023-02-23T00:43:32;36.40;;;25.20;;
76714;SDS011;65644;44.990;20.288;2023-02-23T00:45:58;37.17;;;24.73;;
76714;SDS011;65644;44.990;20.288;2023-02-23T00:48:24;35.50;;;25.20;;
76714;SDS011;65644;44.990;20.288;2023-02-23T00:51:02;37.72;;;25.55;;
76714;SDS011;65644;44.990;20.288;2023-02-23T00:53:28;41.55;;;25.52;;
76714;SDS011;65644;44.990;20.288;2023-02-23T00:55:54;35.28;;;25.60;;
76714;SDS011;65644;44.990;20.288;2023-02-23T00:58:21;37.42;;;25.65;;
76714;SDS011;65644;44.990;20.288;2023-02-23T01:00:47;37.80;;;26.35;;
76714;SDS011;65644;44.990;20.288;2023-02-23T01:03:13;38.65;;;27.40;;
76714;SDS011;65644;44.990;20.288;2023-02-23T01:05:39;37.97;;;25.73;;
76714;SDS011;65644;44.990;20.288;2023-02-23T01:08:07;37.45;;;25.08;;
76714;SDS011;65644;44.990;20.288;2023-02-23T01:10:38;38.10;;;24.85;;
76714;SDS011;65644;44.990;20.288;2023-02-23T01:13:05;35.00;;;24.90;;
76714;SDS011;65644;44.990;20.288;2023-02-23T01:15:31;36.20;;;25.17;;
76714;SDS011;65644;44.990;20.288;2023-02-23T01:17:57;40.80;;;26.45;;
76714;SDS011;65644;44.990;20.288;2023-02-23T01:20:23;42.80;;;28.52;;
76714;SDS011;65644;44.990;20.288;2023-02-23T01:22:49;36.35;;;25.75;;
76714;SDS011;65644;44.990;20.288;2023-02-23T01:25:16;41.85;;;27.20;;
76714;SDS011;65644;44.990;20.288;2023-02-23T01:27:43;39.92;;;25.65;;
76714;SDS011;65644;44.990;20.288;2023-02-23T01:30:09;39.22;;;27.15;;
76714;SDS011;65644;44.990;20.288;2023-02-23T01:32:36;38.70;;;26.00;;
76714;SDS011;65644;44.990;20.288;2023-02-23T01:35:03;38.17;;;25.75;;
76714;SDS011;65644;44.990;20.288;2023-02-23T01:37:30;40.28;;;27.45;;
76714;SDS011;65644;44.990;20.288;2023-02-23T01:39:57;52.58;;;34.03;;
76714;SDS011;65644;44.990;20.288;2023-02-23T01:42:23;51.22;;;33.83;;
76714;SDS011;65644;44.990;20.288;2023-02-23T01:47:18;61.45;;;39.20;;
76714;SDS011;65644;44.990;20.288;2023-02-23T01:49:44;52.95;;;36.33;;
76714;SDS011;65644;44.990;20.288;2023-02-23T01:52:12;53.90;;;36.00;;
76714;SDS011;65644;44.990;20.288;2023-02-23T01:54:40;46.95;;;30.95;;
76714;SDS011;65644;44.990;20.288;2023-02-23T01:57:09;42.65;;;30.02;;
76714;SDS011;65644;44.990;20.288;2023-02-23T01:59:43;45.83;;;30.17;;
76714;SDS011;65644;44.990;20.288;2023-02-23T02:02:09;43.42;;;30.65;;
76714;SDS011;65644;44.990;20.288;2023-02-23T02:04:37;49.35;;;32.38;;
76714;SDS011;65644;44.990;20.288;2023-02-23T02:07:14;46.03;;;31.70;;
76714;SDS011;65644;44.990;20.288;2023-02-23T02:09:42;48.70;;;32.42;;
76714;SDS011;65644;44.990;20.288;2023-02-23T02:12:28;44.42;;;30.20;;
76714;SDS011;65644;44.990;20.288;2023-02-23T02:14:55;43.40;;;29.58;;
76714;SDS011;65644;44.990;20.288;2023-02-23T02:17:27;43.10;;;29.85;;
76714;SDS011;65644;44.990;20.288;2023-02-23T02:28:26;41.00;;;28.35;;
76714;SDS011;65644;44.990;20.288;2023-02-23T02:44:07;42.00;;;27.65;;
76714;SDS011;65644;44.990;20.288;2023-02-23T02:46:37;43.40;;;29.02;;
76714;SDS011;65644;44.990;20.288;2023-02-23T02:49:25;42.38;;;27.10;;
76714;SDS011;65644;44.990;20.288;2023-02-23T02:51:57;42.88;;;27.67;;
76714;SDS011;65644;44.990;20.288;2023-02-23T02:54:42;50.58;;;29.40;;
76714;SDS011;65644;44.990;20.288;2023-02-23T02:57:08;47.08;;;29.00;;
76714;SDS011;65644;44.990;20.288;2023-02-23T02:59:42;47.47;;;30.27;;
76714;SDS011;65644;44.990;20.288;2023-02-23T03:02:27;55.30;;;30.45;;
76714;SDS011;65644;44.990;20.288;2023-02-23T03:05:13;51.58;;;30.38;;
76714;SDS011;65644;44.990;20.288;2023-02-23T03:10:46;48.85;;;28.63;;
76714;SDS011;65644;44.990;20.288;2023-02-23T03:16:25;43.07;;;28.50;;
76714;SDS011;65644;44.990;20.288;2023-02-23T03:19:16;40.80;;;27.33;;
76714;SDS011;65644;44.990;20.288;2023-02-23T03:22:06;56.08;;;36.75;;
76714;SDS011;65644;44.990;20.288;2023-02-23T03:24:59;54.60;;;36.90;;
76714;SDS011;65644;44.990;20.288;2023-02-23T03:28:09;50.33;;;34.50;;
76714;SDS011;65644;44.990;20.288;2023-02-23T03:30:53;45.37;;;29.00;;
76714;SDS011;65644;44.990;20.288;2023-02-23T03:33:47;40.03;;;26.63;;
76714;SDS011;65644;44.990;20.288;2023-02-23T03:36:34;40.27;;;28.03;;
76714;SDS011;65644;44.990;20.288;2023-02-23T03:39:32;40.60;;;27.50;;
76714;SDS011;65644;44.990;20.288;2023-02-23T03:42:19;44.23;;;28.57;;
76714;SDS011;65644;44.990;20.288;2023-02-23T03:45:09;40.03;;;26.80;;
76714;SDS011;65644;44.990;20.288;2023-02-23T03:47:55;42.90;;;25.63;;
76714;SDS011;65644;44.990;20.288;2023-02-23T03:50:42;41.22;;;25.42;;
76714;SDS011;65644;44.990;20.288;2023-02-23T03:53:34;42.33;;;27.57;;
76714;SDS011;65644;44.990;20.288;2023-02-23T03:56:23;42.37;;;26.40;;
76714;SDS011;65644;44.990;20.288;2023-02-23T03:59:10;38.30;;;25.97;;
76714;SDS011;65644;44.990;20.288;2023-02-23T04:01:56;43.53;;;28.37;;
76714;SDS011;65644;44.990;20.288;2023-02-23T04:04:41;51.03;;;31.05;;
76714;SDS011;65644;44.990;20.288;2023-02-23T04:07:26;45.13;;;29.17;;
76714;SDS011;65644;44.990;20.288;2023-02-23T04:10:11;50.33;;;30.23;;
76714;SDS011;65644;44.990;20.288;2023-02-23T04:18:16;59.63;;;37.05;;
76714;SDS011;65644;44.990;20.288;2023-02-23T04:20:42;61.27;;;38.57;;
76714;SDS011;65644;44.990;20.288;2023-02-23T04:23:08;55.37;;;33.77;;
76714;SDS011;65644;44.990;20.288;2023-02-23T04:25:34;58.63;;;38.83;;
76714;SDS011;65644;44.990;20.288;2023-02-23T04:28:00;64.83;;;39.80;;
76714;SDS011;65644;44.990;20.288;2023-02-23T04:30:27;64.10;;;39.92;;
76714;SDS011;65644;44.990;20.288;2023-02-23T04:32:54;62.13;;;40.97;;
76714;SDS011;65644;44.990;20.288;2023-02-23T04:35:20;61.30;;;39.70;;
76714;SDS011;65644;44.990;20.288;2023-02-23T04:37:46;61.63;;;40.80;;
76714;SDS011;65644;44.990;20.288;2023-02-23T04:40:12;61.80;;;40.35;;
76714;SDS011;65644;44.990;20.288;2023-02-23T04:42:38;65.50;;;40.83;;
76714;SDS011;65644;44.990;20.288;2023-02-23T04:45:05;62.67;;;40.13;;
76714;SDS011;65644;44.990;20.288;2023-02-23T04:47:31;60.10;;;38.63;;
76714;SDS011;65644;44.990;20.288;2023-02-23T04:49:57;61.03;;;39.70;;
76714;SDS011;65644;44.990;20.288;2023-02-23T04:52:24;67.43;;;41.57;;
76714;SDS011;65644;44.990;20.288;2023-02-23T04:54:50;67.67;;;41.73;;
76714;SDS011;65644;44.990;20.288;2023-02-23T04:57:16;67.10;;;42.20;;
76714;SDS011;65644;44.990;20.288;2023-02-23T04:59:42;66.67;;;40.87;;
76714;SDS011;65644;44.990;20.288;2023-02-23T05:02:08;66.00;;;41.77;;
76714;SDS011;65644;44.990;20.288;2023-02-23T05:04:34;64.40;;;41.80;;
76714;SDS011;65644;44.990;20.288;2023-02-23T05:07:00;68.27;;;43.17;;
76714;SDS011;65644;44.990;20.288;2023-02-23T05:09:27;65.33;;;40.43;;
76714;SDS011;65644;44.990;20.288;2023-02-23T05:11:53;62.47;;;41.43;;
76714;SDS011;65644;44.990;20.288;2023-02-23T05:14:20;63.40;;;40.47;;
76714;SDS011;65644;44.990;20.288;2023-02-23T05:16:46;66.83;;;41.47;;
76714;SDS011;65644;44.990;20.288;2023-02-23T05:19:12;67.80;;;43.90;;
76714;SDS011;65644;44.990;20.288;2023-02-23T05:21:38;68.50;;;44.07;;
76714;SDS011;65644;44.990;20.288;2023-02-23T05:24:05;71.10;;;44.63;;
76714;SDS011;65644;44.990;20.288;2023-02-23T05:26:32;70.50;;;44.83;;
76714;SDS011;65644;44.990;20.288;2023-02-23T05:28:58;71.63;;;45.07;;
76714;SDS011;65644;44.990;20.288;2023-02-23T05:31:24;66.37;;;43.13;;
76714;SDS011;65644;44.990;20.288;2023-02-23T05:33:50;65.07;;;41.20;;
76714;SDS011;65644;44.990;20.288;2023-02-23T05:36:17;66.03;;;42.23;;
76714;SDS011;65644;44.990;20.288;2023-02-23T05:38:44;65.30;;;40.67;;
76714;SDS011;65644;44.990;20.288;2023-02-23T05:41:12;60.87;;;39.77;;
76714;SDS011;65644;44.990;20.288;2023-02-23T05:43:38;59.73;;;38.33;;
76714;SDS011;65644;44.990;20.288;2023-02-23T05:46:08;58.33;;;37.23;;
76714;SDS011;65644;44.990;20.288;2023-02-23T05:48:35;59.10;;;36.67;;
76714;SDS011;65644;44.990;20.288;2023-02-23T05:51:05;59.53;;;37.50;;
76714;SDS011;65644;44.990;20.288;2023-02-23T05:53:31;60.07;;;37.80;;
76714;SDS011;65644;44.990;20.288;2023-02-23T05:55:57;61.20;;;37.77;;
76714;SDS011;65644;44.990;20.288;2023-02-23T05:58:23;62.40;;;39.00;;
76714;SDS011;65644;44.990;20.288;2023-02-23T06:00:50;80.33;;;46.90;;
76714;SDS011;65644;44.990;20.288;2023-02-23T06:03:16;64.23;;;39.87;;
76714;SDS011;65644;44.990;20.288;2023-02-23T06:05:47;63.53;;;38.80;;
76714;SDS011;65644;44.990;20.288;2023-02-23T06:08:14;67.63;;;41.07;;
76714;SDS011;65644;44.990;20.288;2023-02-23T06:10:40;72.10;;;40.93;;
76714;SDS011;65644;44.990;20.288;2023-02-23T06:13:06;71.63;;;42.67;;
76714;SDS011;65644;44.990;20.288;2023-02-23T06:15:32;60.13;;;37.57;;
76714;SDS011;65644;44.990;20.288;2023-02-23T06:17:58;54.63;;;34.67;;
76714;SDS011;65644;44.990;20.288;2023-02-23T06:20:24;56.17;;;36.27;;
76714;SDS011;65644;44.990;20.288;2023-02-23T06:22:50;53.73;;;34.70;;
76714;SDS011;65644;44.990;20.288;2023-02-23T06:25:16;52.60;;;34.20;;
76714;SDS011;65644;44.990;20.288;2023-02-23T06:27:42;48.87;;;33.20;;
76714;SDS011;65644;44.990;20.288;2023-02-23T06:30:10;52.53;;;33.43;;
76714;SDS011;65644;44.990;20.288;2023-02-23T06:32:36;47.95;;;32.88;;
76714;SDS011;65644;44.990;20.288;2023-02-23T06:35:03;50.20;;;32.65;;
76714;SDS011;65644;44.990;20.288;2023-02-23T06:37:30;46.57;;;31.60;;
76714;SDS011;65644;44.990;20.288;2023-02-23T06:39:56;47.58;;;31.83;;
76714;SDS011;65644;44.990;20.288;2023-02-23T06:42:22;50.08;;;31.75;;
76714;SDS011;65644;44.990;20.288;2023-02-23T06:44:48;44.58;;;30.88;;
76714;SDS011;65644;44.990;20.288;2023-02-23T06:47:14;45.83;;;31.25;;
76714;SDS011;65644;44.990;20.288;2023-02-23T06:49:40;45.75;;;31.13;;
76714;SDS011;65644;44.990;20.288;2023-02-23T06:52:07;44.40;;;31.20;;
76714;SDS011;65644;44.990;20.288;2023-02-23T06:54:33;42.22;;;30.48;;
76714;SDS011;65644;44.990;20.288;2023-02-23T06:56:59;44.08;;;30.52;;
76714;SDS011;65644;44.990;20.288;2023-02-23T06:59:26;42.17;;;30.27;;
76714;SDS011;65644;44.990;20.288;2023-02-23T07:01:52;43.08;;;29.60;;
76714;SDS011;65644;44.990;20.288;2023-02-23T07:04:18;43.97;;;29.92;;
76714;SDS011;65644;44.990;20.288;2023-02-23T07:06:44;42.22;;;29.67;;
76714;SDS011;65644;44.990;20.288;2023-02-23T07:09:10;43.03;;;30.77;;
76714;SDS011;65644;44.990;20.288;2023-02-23T07:11:36;44.20;;;31.85;;
76714;SDS011;65644;44.990;20.288;2023-02-23T07:14:02;46.40;;;33.25;;
76714;SDS011;65644;44.990;20.288;2023-02-23T07:16:28;46.20;;;33.83;;
76714;SDS011;65644;44.990;20.288;2023-02-23T07:18:54;44.50;;;33.33;;
76714;SDS011;65644;44.990;20.288;2023-02-23T07:21:20;44.97;;;34.33;;
76714;SDS011;65644;44.990;20.288;2023-02-23T07:23:46;48.70;;;35.58;;
76714;SDS011;65644;44.990;20.288;2023-02-23T07:26:13;48.70;;;36.42;;
76714;SDS011;65644;44.990;20.288;2023-02-23T07:28:41;48.63;;;35.55;;
76714;SDS011;65644;44.990;20.288;2023-02-23T07:31:07;45.20;;;36.20;;
76714;SDS011;65644;44.990;20.288;2023-02-23T07:33:33;43.30;;;36.42;;
76714;SDS011;65644;44.990;20.288;2023-02-23T07:35:59;45.13;;;35.40;;
76714;SDS011;65644;44.990;20.288;2023-02-23T07:38:25;45.53;;;36.03;;
76714;SDS011;65644;44.990;20.288;2023-02-23T07:40:52;46.22;;;36.25;;
76714;SDS011;65644;44.990;20.288;2023-02-23T07:43:19;43.92;;;36.53;;
76714;SDS011;65644;44.990;20.288;2023-02-23T07:45:48;42.45;;;34.38;;
76714;SDS011;65644;44.990;20.288;2023-02-23T07:48:15;40.30;;;35.05;;
76714;SDS011;65644;44.990;20.288;2023-02-23T07:50:41;44.50;;;37.22;;
76714;SDS011;65644;44.990;20.288;2023-02-23T07:53:08;43.55;;;38.30;;
76714;SDS011;65644;44.990;20.288;2023-02-23T07:55:34;46.45;;;38.33;;
76714;SDS011;65644;44.990;20.288;2023-02-23T07:58:02;48.03;;;37.65;;
76714;SDS011;65644;44.990;20.288;2023-02-23T08:00:29;46.40;;;36.65;;
76714;SDS011;65644;44.990;20.288;2023-02-23T08:02:57;43.17;;;35.88;;
76714;SDS011;65644;44.990;20.288;2023-02-23T08:05:23;44.83;;;35.60;;
76714;SDS011;65644;44.990;20.288;2023-02-23T08:07:50;44.90;;;37.50;;
76714;SDS011;65644;44.990;20.288;2023-02-23T08:10:16;45.15;;;35.85;;
76714;SDS011;65644;44.990;20.288;2023-02-23T08:12:42;45.85;;;35.17;;
76714;SDS011;65644;44.990;20.288;2023-02-23T08:15:09;44.10;;;36.28;;
76714;SDS011;65644;44.990;20.288;2023-02-23T08:17:36;46.35;;;35.97;;
76714;SDS011;65644;44.990;20.288;2023-02-23T08:20:02;41.95;;;33.40;;
76714;SDS011;65644;44.990;20.288;2023-02-23T08:22:29;44.67;;;35.50;;
76714;SDS011;65644;44.990;20.288;2023-02-23T08:24:55;42.72;;;34.80;;
76714;SDS011;65644;44.990;20.288;2023-02-23T08:27:21;41.03;;;31.77;;
76714;SDS011;65644;44.990;20.288;2023-02-23T08:29:47;40.22;;;30.50;;
76714;SDS011;65644;44.990;20.288;2023-02-23T08:32:15;38.17;;;31.02;;
76714;SDS011;65644;44.990;20.288;2023-02-23T08:34:42;37.67;;;30.08;;
76714;SDS011;65644;44.990;20.288;2023-02-23T08:37:08;40.67;;;31.17;;
76714;SDS011;65644;44.990;20.288;2023-02-23T08:39:34;36.70;;;30.23;;
76714;SDS011;65644;44.990;20.288;2023-02-23T08:42:01;40.72;;;30.48;;
76714;SDS011;65644;44.990;20.288;2023-02-23T08:44:27;40.33;;;28.58;;
76714;SDS011;65644;44.990;20.288;2023-02-23T08:46:53;35.85;;;28.70;;
76714;SDS011;65644;44.990;20.288;2023-02-23T08:49:20;34.78;;;27.92;;
76714;SDS011;65644;44.990;20.288;2023-02-23T08:51:46;33.75;;;27.70;;
76714;SDS011;65644;44.990;20.288;2023-02-23T08:54:12;35.28;;;26.63;;
76714;SDS011;65644;44.990;20.288;2023-02-23T08:56:40;39.20;;;27.52;;
76714;SDS011;65644;44.990;20.288;2023-02-23T08:59:06;37.22;;;28.33;;
76714;SDS011;65644;44.990;20.288;2023-02-23T09:01:32;38.08;;;28.23;;
76714;SDS011;65644;44.990;20.288;2023-02-23T09:03:59;34.97;;;26.27;;
76714;SDS011;65644;44.990;20.288;2023-02-23T09:06:25;34.13;;;26.98;;
76714;SDS011;65644;44.990;20.288;2023-02-23T09:08:52;32.28;;;25.30;;
76714;SDS011;65644;44.990;20.288;2023-02-23T09:11:19;31.52;;;22.08;;
76714;SDS011;65644;44.990;20.288;2023-02-23T09:13:45;28.70;;;20.63;;
76714;SDS011;65644;44.990;20.288;2023-02-23T09:16:11;23.75;;;19.08;;
76714;SDS011;65644;44.990;20.288;2023-02-23T09:18:37;25.05;;;18.33;;
76714;SDS011;65644;44.990;20.288;2023-02-23T09:21:05;22.13;;;17.70;;
76714;SDS011;65644;44.990;20.288;2023-02-23T09:23:33;23.73;;;18.95;;
76714;SDS011;65644;44.990;20.288;2023-02-23T09:26:06;24.65;;;18.33;;
76714;SDS011;65644;44.990;20.288;2023-02-23T09:28:32;23.25;;;18.13;;
76714;SDS011;65644;44.990;20.288;2023-02-23T09:31:09;25.38;;;19.20;;
76714;SDS011;65644;44.990;20.288;2023-02-23T09:33:35;23.88;;;18.05;;
76714;SDS011;65644;44.990;20.288;2023-02-23T09:36:05;24.08;;;17.85;;
76714;SDS011;65644;44.990;20.288;2023-02-23T09:38:31;25.92;;;18.00;;
76714;SDS011;65644;44.990;20.288;2023-02-23T09:40:58;21.63;;;17.95;;
76714;SDS011;65644;44.990;20.288;2023-02-23T09:48:31;24.38;;;17.55;;
76714;SDS011;65644;44.990;20.288;2023-02-23T09:50:58;21.70;;;17.77;;
76714;SDS011;65644;44.990;20.288;2023-02-23T09:55:56;24.45;;;18.92;;
76714;SDS011;65644;44.990;20.288;2023-02-23T09:58:24;27.70;;;20.17;;
76714;SDS011;65644;44.990;20.288;2023-02-23T10:03:38;27.40;;;20.92;;
76714;SDS011;65644;44.990;20.288;2023-02-23T10:06:08;31.90;;;23.38;;
76714;SDS011;65644;44.990;20.288;2023-02-23T10:11:15;34.00;;;24.10;;
76714;SDS011;65644;44.990;20.288;2023-02-23T10:13:48;28.80;;;22.10;;
76714;SDS011;65644;44.990;20.288;2023-02-23T10:16:20;30.40;;;21.40;;
76714;SDS011;65644;44.990;20.288;2023-02-23T10:21:15;24.45;;;19.42;;
76714;SDS011;65644;44.990;20.288;2023-02-23T10:26:14;25.00;;;19.25;;
76714;SDS011;65644;44.990;20.288;2023-02-23T10:28:41;27.67;;;20.25;;
76714;SDS011;65644;44.990;20.288;2023-02-23T10:36:19;24.20;;;17.63;;
76714;SDS011;65644;44.990;20.288;2023-02-23T10:38:48;20.52;;;16.90;;
76714;SDS011;65644;44.990;20.288;2023-02-23T10:41:14;22.63;;;17.30;;
76714;SDS011;65644;44.990;20.288;2023-02-23T10:43:40;19.65;;;15.77;;
76714;SDS011;65644;44.990;20.288;2023-02-23T10:46:06;19.80;;;15.73;;
76714;SDS011;65644;44.990;20.288;2023-02-23T10:48:37;22.98;;;16.77;;
76714;SDS011;65644;44.990;20.288;2023-02-23T10:51:05;20.63;;;15.20;;
76714;SDS011;65644;44.990;20.288;2023-02-23T10:53:33;16.65;;;13.95;;
76714;SDS011;65644;44.990;20.288;2023-02-23T10:56:09;21.77;;;14.68;;
76714;SDS011;65644;44.990;20.288;2023-02-23T10:58:41;16.88;;;14.68;;
76714;SDS011;65644;44.990;20.288;2023-02-23T11:01:08;16.45;;;13.38;;
76714;SDS011;65644;44.990;20.288;2023-02-23T11:03:37;18.38;;;14.70;;
76714;SDS011;65644;44.990;20.288;2023-02-23T11:06:04;14.30;;;11.60;;
76714;SDS011;65644;44.990;20.288;2023-02-23T11:08:34;15.35;;;12.30;;
76714;SDS011;65644;44.990;20.288;2023-02-23T11:13:40;21.55;;;14.70;;
76714;SDS011;65644;44.990;20.288;2023-02-23T11:16:19;19.17;;;14.00;;
76714;SDS011;65644;44.990;20.288;2023-02-23T11:18:50;16.50;;;14.05;;
76714;SDS011;65644;44.990;20.288;2023-02-23T11:21:36;16.08;;;11.63;;
76714;SDS011;65644;44.990;20.288;2023-02-23T11:24:24;22.08;;;14.45;;
76714;SDS011;65644;44.990;20.288;2023-02-23T11:26:49;18.83;;;13.88;;
76714;SDS011;65644;44.990;20.288;2023-02-23T11:29:36;15.82;;;13.10;;
76714;SDS011;65644;44.990;20.288;2023-02-23T11:32:06;17.77;;;12.50;;
76714;SDS011;65644;44.990;20.288;2023-02-23T11:34:34;19.48;;;13.27;;
76714;SDS011;65644;44.990;20.288;2023-02-23T11:39:59;12.85;;;10.85;;
76714;SDS011;65644;44.990;20.288;2023-02-23T11:42:26;15.25;;;9.57;;
76714;SDS011;65644;44.990;20.288;2023-02-23T11:45:01;11.98;;;9.95;;
76714;SDS011;65644;44.990;20.288;2023-02-23T11:47:28;13.13;;;10.57;;
76714;SDS011;65644;44.990;20.288;2023-02-23T11:49:54;17.15;;;10.98;;
76714;SDS011;65644;44.990;20.288;2023-02-23T11:52:21;15.30;;;11.93;;
76714;SDS011;65644;44.990;20.288;2023-02-23T11:54:49;13.82;;;10.07;;
76714;SDS011;65644;44.990;20.288;2023-02-23T11:57:21;9.25;;;7.28;;
76714;SDS011;65644;44.990;20.288;2023-02-23T11:59:47;13.93;;;9.00;;
76714;SDS011;65644;44.990;20.288;2023-02-23T12:04:43;41.38;;;23.35;;
76714;SDS011;65644;44.990;20.288;2023-02-23T12:09:45;17.58;;;14.15;;
76714;SDS011;65644;44.990;20.288;2023-02-23T12:12:14;10.60;;;9.40;;
76714;SDS011;65644;44.990;20.288;2023-02-23T12:14:47;14.40;;;11.18;;
76714;SDS011;65644;44.990;20.288;2023-02-23T12:17:37;14.60;;;10.45;;
76714;SDS011;65644;44.990;20.288;2023-02-23T12:20:06;13.27;;;11.05;;
76714;SDS011;65644;44.990;20.288;2023-02-23T12:22:38;13.68;;;10.57;;
76714;SDS011;65644;44.990;20.288;2023-02-23T12:25:18;12.60;;;10.52;;
76714;SDS011;65644;44.990;20.288;2023-02-23T12:27:56;13.30;;;10.57;;
76714;SDS011;65644;44.990;20.288;2023-02-23T12:32:57;18.60;;;13.35;;
76714;SDS011;65644;44.990;20.288;2023-02-23T12:35:32;22.45;;;17.50;;
76714;SDS011;65644;44.990;20.288;2023-02-23T12:38:11;15.15;;;12.13;;
76714;SDS011;65644;44.990;20.288;2023-02-23T12:40:38;18.05;;;14.70;;
76714;SDS011;65644;44.990;20.288;2023-02-23T12:45:40;13.07;;;10.98;;
76714;SDS011;65644;44.990;20.288;2023-02-23T12:48:12;18.27;;;12.65;;
76714;SDS011;65644;44.990;20.288;2023-02-23T12:50:44;11.38;;;9.98;;
76714;SDS011;65644;44.990;20.288;2023-02-23T12:55:49;11.25;;;8.65;;
76714;SDS011;65644;44.990;20.288;2023-02-23T13:01:09;10.98;;;9.38;;
76714;SDS011;65644;44.990;20.288;2023-02-23T13:03:43;10.25;;;8.68;;
76714;SDS011;65644;44.990;20.288;2023-02-23T13:11:30;9.68;;;7.55;;
76714;SDS011;65644;44.990;20.288;2023-02-23T13:14:08;8.32;;;7.35;;
76714;SDS011;65644;44.990;20.288;2023-02-23T13:16:40;9.65;;;7.13;;
76714;SDS011;65644;44.990;20.288;2023-02-23T13:19:12;13.02;;;10.65;;
76714;SDS011;65644;44.990;20.288;2023-02-23T13:24:13;11.05;;;8.32;;
76714;SDS011;65644;44.990;20.288;2023-02-23T13:26:54;13.10;;;8.63;;
76714;SDS011;65644;44.990;20.288;2023-02-23T13:29:38;13.23;;;10.90;;
76714;SDS011;65644;44.990;20.288;2023-02-23T13:32:12;11.43;;;7.32;;
76714;SDS011;65644;44.990;20.288;2023-02-23T13:37:29;11.50;;;7.65;;
76714;SDS011;65644;44.990;20.288;2023-02-23T13:40:01;10.98;;;7.43;;
76714;SDS011;65644;44.990;20.288;2023-02-23T13:47:55;10.50;;;7.57;;
76714;SDS011;65644;44.990;20.288;2023-02-23T13:52:53;9.55;;;7.47;;
76714;SDS011;65644;44.990;20.288;2023-02-23T13:57:51;10.30;;;7.90;;
76714;SDS011;65644;44.990;20.288;2023-02-23T14:00:18;12.18;;;9.85;;
76714;SDS011;65644;44.990;20.288;2023-02-23T14:02:45;10.25;;;8.25;;
76714;SDS011;65644;44.990;20.288;2023-02-23T14:05:25;10.07;;;7.47;;
76714;SDS011;65644;44.990;20.288;2023-02-23T14:07:52;10.35;;;8.55;;
76714;SDS011;65644;44.990;20.288;2023-02-23T14:10:20;11.10;;;7.68;;
76714;SDS011;65644;44.990;20.288;2023-02-23T14:13:06;12.15;;;9.05;;
76714;SDS011;65644;44.990;20.288;2023-02-23T14:25:46;23.73;;;16.83;;
76714;SDS011;65644;44.990;20.288;2023-02-23T14:47:14;13.52;;;10.68;;
76714;SDS011;65644;44.990;20.288;2023-02-23T14:49:34;17.30;;;11.98;;
76714;SDS011;65644;44.990;20.288;2023-02-23T14:52:04;13.07;;;10.10;;
76714;SDS011;65644;44.990;20.288;2023-02-23T14:54:38;15.77;;;12.98;;
76714;SDS011;65644;44.990;20.288;2023-02-23T14:57:05;16.00;;;11.00;;
76714;SDS011;65644;44.990;20.288;2023-02-23T14:59:38;14.93;;;12.57;;
76714;SDS011;65644;44.990;20.288;2023-02-23T15:02:18;13.57;;;11.20;;
76714;SDS011;65644;44.990;20.288;2023-02-23T15:04:45;14.88;;;10.60;;
76714;SDS011;65644;44.990;20.288;2023-02-23T15:07:14;13.07;;;11.05;;
76714;SDS011;65644;44.990;20.288;2023-02-23T15:09:43;16.50;;;12.40;;
76714;SDS011;65644;44.990;20.288;2023-02-23T15:12:28;21.77;;;13.63;;
76714;SDS011;65644;44.990;20.288;2023-02-23T15:14:55;17.80;;;12.60;;
76714;SDS011;65644;44.990;20.288;2023-02-23T15:17:23;19.85;;;13.73;;
76714;SDS011;65644;44.990;20.288;2023-02-23T15:19:53;14.02;;;11.45;;
76714;SDS011;65644;44.990;20.288;2023-02-23T15:22:27;21.75;;;17.50;;
76714;SDS011;65644;44.990;20.288;2023-02-23T15:24:55;14.95;;;13.38;;
76714;SDS011;65644;44.990;20.288;2023-02-23T15:27:22;17.42;;;12.48;;
76714;SDS011;65644;44.990;20.288;2023-02-23T15:29:51;14.70;;;11.23;;
76714;SDS011;65644;44.990;20.288;2023-02-23T15:32:23;13.18;;;11.75;;
76714;SDS011;65644;44.990;20.288;2023-02-23T15:34:50;16.60;;;12.60;;
76714;SDS011;65644;44.990;20.288;2023-02-23T15:39:50;19.10;;;11.68;;
76714;SDS011;65644;44.990;20.288;2023-02-23T15:42:21;18.20;;;12.82;;
76714;SDS011;65644;44.990;20.288;2023-02-23T15:44:55;15.50;;;11.57;;
76714;SDS011;65644;44.990;20.288;2023-02-23T15:47:22;19.30;;;14.03;;
76714;SDS011;65644;44.990;20.288;2023-02-23T15:49:57;18.63;;;14.35;;
76714;SDS011;65644;44.990;20.288;2023-02-23T15:52:24;28.63;;;15.60;;
76714;SDS011;65644;44.990;20.288;2023-02-23T15:54:54;15.48;;;12.40;;
76714;SDS011;65644;44.990;20.288;2023-02-23T15:57:31;16.35;;;12.50;;
76714;SDS011;65644;44.990;20.288;2023-02-23T15:59:57;19.08;;;14.23;;
76714;SDS011;65644;44.990;20.288;2023-02-23T16:02:24;20.95;;;13.77;;
76714;SDS011;65644;44.990;20.288;2023-02-23T16:04:50;30.67;;;18.88;;
76714;SDS011;65644;44.990;20.288;2023-02-23T16:07:25;31.73;;;22.00;;
76714;SDS011;65644;44.990;20.288;2023-02-23T16:10:01;66.75;;;38.38;;
76714;SDS011;65644;44.990;20.288;2023-02-23T16:12:28;56.65;;;35.35;;
76714;SDS011;65644;44.990;20.288;2023-02-23T16:14:57;57.30;;;36.80;;
76714;SDS011;65644;44.990;20.288;2023-02-23T16:17:44;47.15;;;30.50;;
76714;SDS011;65644;44.990;20.288;2023-02-23T16:22:36;23.73;;;17.48;;
76714;SDS011;65644;44.990;20.288;2023-02-23T16:25:07;33.30;;;20.90;;
76714;SDS011;65644;44.990;20.288;2023-02-23T16:27:36;30.23;;;21.70;;
76714;SDS011;65644;44.990;20.288;2023-02-23T16:30:22;29.92;;;20.17;;
76714;SDS011;65644;44.990;20.288;2023-02-23T16:35:49;26.40;;;14.10;;
76714;SDS011;65644;44.990;20.288;2023-02-23T16:40:47;33.03;;;21.90;;
76714;SDS011;65644;44.990;20.288;2023-02-23T16:43:14;14.57;;;11.20;;
76714;SDS011;65644;44.990;20.288;2023-02-23T16:45:40;13.23;;;8.20;;
76714;SDS011;65644;44.990;20.288;2023-02-23T16:48:16;15.25;;;9.60;;